sensor_id;sensor_type;location;lat;lon;timestamp;P1;durP1;ratioP1;P2;durP2;ratioP2
3916;SDS011;1973;50.518;7.318;2023-06-01T00:02:12;7.63;;;3.80;;
3916;SDS011;1973;50.518;7.318;2023-06-01T00:04:39;4.40;;;3.77;;
3916;SDS011;1973;50.518;7.318;2023-06-01T00:07:07;4.47;;;3.23;;
3916;SDS011;1973;50.518;7.318;2023-06-01T00:09:34;4.30;;;3.10;;
3916;SDS011;1973;50.518;7.318;2023-06-01T00:12:01;4.83;;;2.70;;
3916;SDS011;1973;50.518;7.318;2023-06-01T00:14:28;4.83;;;2.93;;
3916;SDS011;1973;50.518;7.318;2023-06-01T00:16:54;4.77;;;3.00;;
3916;SDS011;1973;50.518;7.318;2023-06-01T00:19:22;4.60;;;3.50;;
3916;SDS011;1973;50.518;7.318;2023-06-01T00:21:55;5.53;;;2.80;;
3916;SDS011;1973;50.518;7.318;2023-06-01T00:24:22;5.27;;;3.27;;
3916;SDS011;1973;50.518;7.318;2023-06-01T00:26:49;6.37;;;3.33;;
3916;SDS011;1973;50.518;7.318;2023-06-01T00:29:16;6.20;;;3.13;;
3916;SDS011;1973;50.518;7.318;2023-06-01T00:31:42;4.83;;;3.27;;
3916;SDS011;1973;50.518;7.318;2023-06-01T00:34:09;4.57;;;2.97;;
3916;SDS011;1973;50.518;7.318;2023-06-01T00:36:35;4.33;;;3.30;;
3916;SDS011;1973;50.518;7.318;2023-06-01T00:39:02;3.80;;;2.70;;
3916;SDS011;1973;50.518;7.318;2023-06-01T00:41:30;4.10;;;3.07;;
3916;SDS011;1973;50.518;7.318;2023-06-01T00:43:58;3.13;;;2.83;;
3916;SDS011;1973;50.518;7.318;2023-06-01T00:46:25;3.87;;;2.97;;
3916;SDS011;1973;50.518;7.318;2023-06-01T00:48:53;3.70;;;3.00;;
3916;SDS011;1973;50.518;7.318;2023-06-01T00:51:20;3.90;;;3.23;;
3916;SDS011;1973;50.518;7.318;2023-06-01T00:53:47;5.67;;;3.17;;
3916;SDS011;1973;50.518;7.318;2023-06-01T00:56:15;5.50;;;3.53;;
3916;SDS011;1973;50.518;7.318;2023-06-01T00:58:42;5.20;;;3.17;;
3916;SDS011;1973;50.518;7.318;2023-06-01T01:01:10;7.17;;;2.93;;
3916;SDS011;1973;50.518;7.318;2023-06-01T01:03:46;6.07;;;3.30;;
3916;SDS011;1973;50.518;7.318;2023-06-01T01:06:17;4.30;;;3.17;;
3916;SDS011;1973;50.518;7.318;2023-06-01T01:11:41;5.60;;;3.70;;
3916;SDS011;1973;50.518;7.318;2023-06-01T01:14:22;4.83;;;3.40;;
3916;SDS011;1973;50.518;7.318;2023-06-01T01:28:10;5.20;;;3.60;;
3916;SDS011;1973;50.518;7.318;2023-06-01T01:30:52;5.60;;;3.87;;
3916;SDS011;1973;50.518;7.318;2023-06-01T01:33:21;6.20;;;2.90;;
3916;SDS011;1973;50.518;7.318;2023-06-01T01:35:49;5.97;;;3.13;;
3916;SDS011;1973;50.518;7.318;2023-06-01T01:38:16;5.43;;;3.43;;
3916;SDS011;1973;50.518;7.318;2023-06-01T01:40:43;7.43;;;3.63;;
3916;SDS011;1973;50.518;7.318;2023-06-01T01:43:09;7.70;;;3.30;;
3916;SDS011;1973;50.518;7.318;2023-06-01T01:45:36;5.20;;;4.20;;
3916;SDS011;1973;50.518;7.318;2023-06-01T01:48:10;4.80;;;3.63;;
3916;SDS011;1973;50.518;7.318;2023-06-01T01:50:50;6.73;;;3.57;;
3916;SDS011;1973;50.518;7.318;2023-06-01T01:53:19;3.53;;;2.80;;
3916;SDS011;1973;50.518;7.318;2023-06-01T01:55:49;4.10;;;3.20;;
3916;SDS011;1973;50.518;7.318;2023-06-01T01:58:17;6.07;;;3.33;;
3916;SDS011;1973;50.518;7.318;2023-06-01T02:00:44;4.50;;;3.57;;
3916;SDS011;1973;50.518;7.318;2023-06-01T02:03:14;4.07;;;3.10;;
3916;SDS011;1973;50.518;7.318;2023-06-01T02:05:42;7.10;;;4.60;;
3916;SDS011;1973;50.518;7.318;2023-06-01T02:08:09;5.07;;;3.40;;
3916;SDS011;1973;50.518;7.318;2023-06-01T02:10:37;7.03;;;3.40;;
3916;SDS011;1973;50.518;7.318;2023-06-01T02:13:03;4.17;;;3.30;;
3916;SDS011;1973;50.518;7.318;2023-06-01T02:15:30;5.27;;;3.57;;
3916;SDS011;1973;50.518;7.318;2023-06-01T02:17:57;4.40;;;3.47;;
3916;SDS011;1973;50.518;7.318;2023-06-01T02:20:25;5.07;;;3.70;;
3916;SDS011;1973;50.518;7.318;2023-06-01T02:22:51;5.73;;;3.63;;
3916;SDS011;1973;50.518;7.318;2023-06-01T02:25:18;9.60;;;3.90;;
3916;SDS011;1973;50.518;7.318;2023-06-01T02:27:45;3.63;;;2.97;;
3916;SDS011;1973;50.518;7.318;2023-06-01T02:30:12;3.97;;;2.90;;
3916;SDS011;1973;50.518;7.318;2023-06-01T02:32:38;7.53;;;3.60;;
3916;SDS011;1973;50.518;7.318;2023-06-01T02:35:05;4.13;;;3.20;;
3916;SDS011;1973;50.518;7.318;2023-06-01T02:37:33;4.50;;;3.57;;
3916;SDS011;1973;50.518;7.318;2023-06-01T02:39:59;5.90;;;3.83;;
3916;SDS011;1973;50.518;7.318;2023-06-01T02:42:26;5.37;;;3.47;;
3916;SDS011;1973;50.518;7.318;2023-06-01T02:44:53;5.70;;;4.27;;
3916;SDS011;1973;50.518;7.318;2023-06-01T02:47:20;4.60;;;3.30;;
3916;SDS011;1973;50.518;7.318;2023-06-01T02:49:46;4.60;;;3.50;;
3916;SDS011;1973;50.518;7.318;2023-06-01T02:52:13;4.37;;;3.30;;
3916;SDS011;1973;50.518;7.318;2023-06-01T02:54:39;4.70;;;3.87;;
3916;SDS011;1973;50.518;7.318;2023-06-01T02:57:06;6.17;;;3.37;;
3916;SDS011;1973;50.518;7.318;2023-06-01T02:59:32;6.40;;;3.47;;
3916;SDS011;1973;50.518;7.318;2023-06-01T03:01:59;5.97;;;3.53;;
3916;SDS011;1973;50.518;7.318;2023-06-01T03:04:25;5.00;;;3.13;;
3916;SDS011;1973;50.518;7.318;2023-06-01T03:06:55;6.80;;;3.73;;
3916;SDS011;1973;50.518;7.318;2023-06-01T03:09:23;5.23;;;3.60;;
3916;SDS011;1973;50.518;7.318;2023-06-01T03:11:49;5.80;;;3.63;;
3916;SDS011;1973;50.518;7.318;2023-06-01T03:14:16;5.73;;;3.50;;
3916;SDS011;1973;50.518;7.318;2023-06-01T03:16:43;4.57;;;3.27;;
3916;SDS011;1973;50.518;7.318;2023-06-01T03:19:09;4.03;;;3.33;;
3916;SDS011;1973;50.518;7.318;2023-06-01T03:21:36;4.50;;;3.67;;
3916;SDS011;1973;50.518;7.318;2023-06-01T03:24:03;5.50;;;3.73;;
3916;SDS011;1973;50.518;7.318;2023-06-01T03:26:30;5.53;;;3.80;;
3916;SDS011;1973;50.518;7.318;2023-06-01T03:28:56;5.70;;;3.50;;
3916;SDS011;1973;50.518;7.318;2023-06-01T03:31:23;5.10;;;3.43;;
3916;SDS011;1973;50.518;7.318;2023-06-01T03:33:50;6.23;;;4.10;;
3916;SDS011;1973;50.518;7.318;2023-06-01T03:36:17;6.30;;;3.60;;
3916;SDS011;1973;50.518;7.318;2023-06-01T03:38:43;4.80;;;3.30;;
3916;SDS011;1973;50.518;7.318;2023-06-01T03:41:10;5.60;;;3.87;;
3916;SDS011;1973;50.518;7.318;2023-06-01T03:43:37;4.70;;;3.60;;
3916;SDS011;1973;50.518;7.318;2023-06-01T03:46:03;4.47;;;3.50;;
3916;SDS011;1973;50.518;7.318;2023-06-01T03:48:29;4.57;;;3.80;;
3916;SDS011;1973;50.518;7.318;2023-06-01T03:50:56;3.77;;;3.37;;
3916;SDS011;1973;50.518;7.318;2023-06-01T03:53:23;9.43;;;4.30;;
3916;SDS011;1973;50.518;7.318;2023-06-01T03:55:51;4.97;;;3.90;;
3916;SDS011;1973;50.518;7.318;2023-06-01T03:58:18;3.80;;;3.30;;
3916;SDS011;1973;50.518;7.318;2023-06-01T04:00:45;6.07;;;4.27;;
3916;SDS011;1973;50.518;7.318;2023-06-01T04:03:12;4.67;;;4.10;;
3916;SDS011;1973;50.518;7.318;2023-06-01T04:05:41;4.90;;;3.60;;
3916;SDS011;1973;50.518;7.318;2023-06-01T04:08:08;4.50;;;3.70;;
3916;SDS011;1973;50.518;7.318;2023-06-01T04:10:35;6.23;;;4.10;;
3916;SDS011;1973;50.518;7.318;2023-06-01T04:13:01;4.30;;;3.50;;
3916;SDS011;1973;50.518;7.318;2023-06-01T04:15:28;7.83;;;3.70;;
3916;SDS011;1973;50.518;7.318;2023-06-01T04:17:55;4.60;;;3.53;;
3916;SDS011;1973;50.518;7.318;2023-06-01T04:20:21;6.27;;;3.67;;
3916;SDS011;1973;50.518;7.318;2023-06-01T04:22:49;5.50;;;3.73;;
3916;SDS011;1973;50.518;7.318;2023-06-01T04:25:15;5.70;;;3.80;;
3916;SDS011;1973;50.518;7.318;2023-06-01T04:27:47;6.87;;;3.60;;
3916;SDS011;1973;50.518;7.318;2023-06-01T04:30:14;7.30;;;4.23;;
3916;SDS011;1973;50.518;7.318;2023-06-01T04:32:43;4.87;;;3.53;;
3916;SDS011;1973;50.518;7.318;2023-06-01T04:35:11;7.37;;;3.50;;
3916;SDS011;1973;50.518;7.318;2023-06-01T04:37:38;5.33;;;3.20;;
3916;SDS011;1973;50.518;7.318;2023-06-01T04:40:07;6.87;;;4.00;;
3916;SDS011;1973;50.518;7.318;2023-06-01T04:42:35;4.23;;;3.80;;
3916;SDS011;1973;50.518;7.318;2023-06-01T04:45:05;4.53;;;3.50;;
3916;SDS011;1973;50.518;7.318;2023-06-01T04:47:34;4.47;;;3.87;;
3916;SDS011;1973;50.518;7.318;2023-06-01T04:50:06;4.60;;;3.90;;
3916;SDS011;1973;50.518;7.318;2023-06-01T04:52:35;4.43;;;3.63;;
3916;SDS011;1973;50.518;7.318;2023-06-01T04:55:03;7.30;;;4.30;;
3916;SDS011;1973;50.518;7.318;2023-06-01T04:57:31;6.80;;;4.20;;
3916;SDS011;1973;50.518;7.318;2023-06-01T04:59:58;6.97;;;3.83;;
3916;SDS011;1973;50.518;7.318;2023-06-01T05:02:25;6.60;;;4.33;;
3916;SDS011;1973;50.518;7.318;2023-06-01T05:04:52;6.83;;;3.70;;
3916;SDS011;1973;50.518;7.318;2023-06-01T05:07:18;5.20;;;3.33;;
3916;SDS011;1973;50.518;7.318;2023-06-01T05:09:47;5.00;;;3.40;;
3916;SDS011;1973;50.518;7.318;2023-06-01T05:12:14;6.30;;;3.90;;
3916;SDS011;1973;50.518;7.318;2023-06-01T05:14:41;4.73;;;3.73;;
3916;SDS011;1973;50.518;7.318;2023-06-01T05:17:07;4.60;;;3.87;;
3916;SDS011;1973;50.518;7.318;2023-06-01T05:19:34;4.70;;;3.70;;
3916;SDS011;1973;50.518;7.318;2023-06-01T05:22:00;6.80;;;4.37;;
3916;SDS011;1973;50.518;7.318;2023-06-01T05:24:27;7.87;;;4.83;;
3916;SDS011;1973;50.518;7.318;2023-06-01T05:26:54;8.03;;;3.93;;
3916;SDS011;1973;50.518;7.318;2023-06-01T05:29:20;6.37;;;4.70;;
3916;SDS011;1973;50.518;7.318;2023-06-01T05:31:48;8.87;;;5.33;;
3916;SDS011;1973;50.518;7.318;2023-06-01T05:34:15;10.43;;;5.20;;
3916;SDS011;1973;50.518;7.318;2023-06-01T05:36:42;7.97;;;6.00;;
3916;SDS011;1973;50.518;7.318;2023-06-01T05:39:09;7.70;;;5.87;;
3916;SDS011;1973;50.518;7.318;2023-06-01T05:41:35;7.83;;;5.03;;
3916;SDS011;1973;50.518;7.318;2023-06-01T05:44:01;12.07;;;6.33;;
3916;SDS011;1973;50.518;7.318;2023-06-01T05:46:28;7.47;;;5.90;;
3916;SDS011;1973;50.518;7.318;2023-06-01T05:48:55;8.87;;;5.60;;
3916;SDS011;1973;50.518;7.318;2023-06-01T05:51:22;7.50;;;5.87;;
3916;SDS011;1973;50.518;7.318;2023-06-01T05:53:48;11.97;;;6.63;;
3916;SDS011;1973;50.518;7.318;2023-06-01T05:56:15;8.23;;;5.83;;
3916;SDS011;1973;50.518;7.318;2023-06-01T05:58:43;9.27;;;6.80;;
3916;SDS011;1973;50.518;7.318;2023-06-01T06:01:10;10.60;;;6.70;;
3916;SDS011;1973;50.518;7.318;2023-06-01T06:03:36;9.53;;;5.63;;
3916;SDS011;1973;50.518;7.318;2023-06-01T06:06:04;7.90;;;6.83;;
3916;SDS011;1973;50.518;7.318;2023-06-01T06:08:31;9.47;;;6.47;;
3916;SDS011;1973;50.518;7.318;2023-06-01T06:10:58;11.37;;;6.03;;
3916;SDS011;1973;50.518;7.318;2023-06-01T06:13:25;9.47;;;6.00;;
3916;SDS011;1973;50.518;7.318;2023-06-01T06:15:52;10.40;;;6.50;;
3916;SDS011;1973;50.518;7.318;2023-06-01T06:18:18;9.83;;;5.97;;
3916;SDS011;1973;50.518;7.318;2023-06-01T06:20:46;8.93;;;5.90;;
3916;SDS011;1973;50.518;7.318;2023-06-01T06:23:12;8.23;;;6.33;;
3916;SDS011;1973;50.518;7.318;2023-06-01T06:25:39;13.47;;;6.47;;
3916;SDS011;1973;50.518;7.318;2023-06-01T06:28:09;12.27;;;5.83;;
3916;SDS011;1973;50.518;7.318;2023-06-01T06:30:35;9.50;;;6.13;;
3916;SDS011;1973;50.518;7.318;2023-06-01T06:33:02;9.87;;;5.60;;
3916;SDS011;1973;50.518;7.318;2023-06-01T06:35:29;8.50;;;5.77;;
3916;SDS011;1973;50.518;7.318;2023-06-01T06:37:55;12.97;;;6.93;;
3916;SDS011;1973;50.518;7.318;2023-06-01T06:40:22;10.20;;;5.57;;
3916;SDS011;1973;50.518;7.318;2023-06-01T06:42:48;13.07;;;6.10;;
3916;SDS011;1973;50.518;7.318;2023-06-01T06:45:16;7.30;;;6.13;;
3916;SDS011;1973;50.518;7.318;2023-06-01T06:47:43;8.10;;;5.80;;
3916;SDS011;1973;50.518;7.318;2023-06-01T06:50:12;11.03;;;6.30;;
3916;SDS011;1973;50.518;7.318;2023-06-01T06:52:39;8.73;;;6.23;;
3916;SDS011;1973;50.518;7.318;2023-06-01T06:55:06;8.23;;;6.60;;
3916;SDS011;1973;50.518;7.318;2023-06-01T06:57:32;10.83;;;6.37;;
3916;SDS011;1973;50.518;7.318;2023-06-01T07:00:00;10.60;;;5.90;;
3916;SDS011;1973;50.518;7.318;2023-06-01T07:02:31;8.27;;;6.50;;
3916;SDS011;1973;50.518;7.318;2023-06-01T07:04:58;12.70;;;7.20;;
3916;SDS011;1973;50.518;7.318;2023-06-01T07:07:24;8.27;;;6.20;;
3916;SDS011;1973;50.518;7.318;2023-06-01T07:09:51;7.70;;;5.97;;
3916;SDS011;1973;50.518;7.318;2023-06-01T07:12:19;12.80;;;8.03;;
3916;SDS011;1973;50.518;7.318;2023-06-01T07:14:45;9.47;;;7.20;;
3916;SDS011;1973;50.518;7.318;2023-06-01T07:17:12;10.27;;;6.83;;
3916;SDS011;1973;50.518;7.318;2023-06-01T07:19:38;9.17;;;6.40;;
3916;SDS011;1973;50.518;7.318;2023-06-01T07:22:05;10.80;;;7.20;;
3916;SDS011;1973;50.518;7.318;2023-06-01T07:24:32;12.07;;;6.97;;
3916;SDS011;1973;50.518;7.318;2023-06-01T07:26:58;9.37;;;7.00;;
3916;SDS011;1973;50.518;7.318;2023-06-01T07:29:25;11.87;;;6.90;;
3916;SDS011;1973;50.518;7.318;2023-06-01T07:31:52;13.17;;;6.90;;
3916;SDS011;1973;50.518;7.318;2023-06-01T07:34:19;10.70;;;7.07;;
3916;SDS011;1973;50.518;7.318;2023-06-01T07:36:46;12.27;;;7.10;;
3916;SDS011;1973;50.518;7.318;2023-06-01T07:39:13;10.83;;;7.73;;
3916;SDS011;1973;50.518;7.318;2023-06-01T07:41:41;9.00;;;7.40;;
3916;SDS011;1973;50.518;7.318;2023-06-01T07:44:10;12.43;;;8.33;;
3916;SDS011;1973;50.518;7.318;2023-06-01T07:46:38;8.77;;;7.17;;
3916;SDS011;1973;50.518;7.318;2023-06-01T07:49:05;8.13;;;6.00;;
3916;SDS011;1973;50.518;7.318;2023-06-01T07:51:32;9.60;;;6.37;;
3916;SDS011;1973;50.518;7.318;2023-06-01T07:53:58;10.57;;;7.50;;
3916;SDS011;1973;50.518;7.318;2023-06-01T07:56:26;11.27;;;7.77;;
3916;SDS011;1973;50.518;7.318;2023-06-01T07:58:53;10.87;;;7.83;;
3916;SDS011;1973;50.518;7.318;2023-06-01T08:01:19;12.33;;;8.53;;
3916;SDS011;1973;50.518;7.318;2023-06-01T08:03:46;13.60;;;8.87;;
3916;SDS011;1973;50.518;7.318;2023-06-01T08:06:17;13.27;;;7.20;;
3916;SDS011;1973;50.518;7.318;2023-06-01T08:08:44;9.87;;;6.30;;
3916;SDS011;1973;50.518;7.318;2023-06-01T08:11:12;9.50;;;7.70;;
3916;SDS011;1973;50.518;7.318;2023-06-01T08:13:38;14.60;;;8.90;;
3916;SDS011;1973;50.518;7.318;2023-06-01T08:16:05;11.67;;;8.50;;
3916;SDS011;1973;50.518;7.318;2023-06-01T08:18:31;11.50;;;7.80;;
3916;SDS011;1973;50.518;7.318;2023-06-01T08:20:58;12.47;;;8.73;;
3916;SDS011;1973;50.518;7.318;2023-06-01T08:23:26;11.37;;;8.27;;
3916;SDS011;1973;50.518;7.318;2023-06-01T08:25:53;14.47;;;9.37;;
3916;SDS011;1973;50.518;7.318;2023-06-01T08:28:19;14.13;;;8.70;;
3916;SDS011;1973;50.518;7.318;2023-06-01T08:30:46;14.53;;;8.93;;
3916;SDS011;1973;50.518;7.318;2023-06-01T08:33:13;12.37;;;8.30;;
3916;SDS011;1973;50.518;7.318;2023-06-01T08:35:40;16.07;;;10.90;;
3916;SDS011;1973;50.518;7.318;2023-06-01T08:38:06;15.50;;;9.40;;
3916;SDS011;1973;50.518;7.318;2023-06-01T08:40:32;13.20;;;8.70;;
3916;SDS011;1973;50.518;7.318;2023-06-01T08:43:04;16.30;;;9.20;;
3916;SDS011;1973;50.518;7.318;2023-06-01T08:45:38;12.67;;;8.30;;
3916;SDS011;1973;50.518;7.318;2023-06-01T08:48:05;14.00;;;9.23;;
3916;SDS011;1973;50.518;7.318;2023-06-01T08:50:37;12.10;;;9.07;;
3916;SDS011;1973;50.518;7.318;2023-06-01T08:53:04;15.37;;;8.97;;
3916;SDS011;1973;50.518;7.318;2023-06-01T08:55:32;13.90;;;9.87;;
3916;SDS011;1973;50.518;7.318;2023-06-01T08:57:59;13.83;;;9.70;;
3916;SDS011;1973;50.518;7.318;2023-06-01T09:00:26;14.17;;;9.67;;
3916;SDS011;1973;50.518;7.318;2023-06-01T09:02:54;12.17;;;9.50;;
3916;SDS011;1973;50.518;7.318;2023-06-01T09:05:21;13.47;;;9.57;;
3916;SDS011;1973;50.518;7.318;2023-06-01T09:07:48;14.30;;;10.07;;
3916;SDS011;1973;50.518;7.318;2023-06-01T09:10:15;12.10;;;9.17;;
3916;SDS011;1973;50.518;7.318;2023-06-01T09:12:51;13.00;;;9.40;;
3916;SDS011;1973;50.518;7.318;2023-06-01T09:15:20;11.93;;;9.40;;
3916;SDS011;1973;50.518;7.318;2023-06-01T09:17:48;16.53;;;11.37;;
3916;SDS011;1973;50.518;7.318;2023-06-01T09:20:23;20.90;;;13.03;;
3916;SDS011;1973;50.518;7.318;2023-06-01T09:22:50;21.80;;;11.57;;
3916;SDS011;1973;50.518;7.318;2023-06-01T09:25:23;17.80;;;11.73;;
3916;SDS011;1973;50.518;7.318;2023-06-01T09:27:54;16.07;;;11.73;;
3916;SDS011;1973;50.518;7.318;2023-06-01T09:30:22;17.60;;;12.10;;
3916;SDS011;1973;50.518;7.318;2023-06-01T09:32:51;18.73;;;12.80;;
3916;SDS011;1973;50.518;7.318;2023-06-01T09:38:10;20.90;;;13.67;;
3916;SDS011;1973;50.518;7.318;2023-06-01T09:40:38;22.80;;;14.40;;
3916;SDS011;1973;50.518;7.318;2023-06-01T09:43:18;19.50;;;14.17;;
3916;SDS011;1973;50.518;7.318;2023-06-01T09:46:03;19.80;;;15.00;;
3916;SDS011;1973;50.518;7.318;2023-06-01T09:48:33;21.23;;;16.63;;
3916;SDS011;1973;50.518;7.318;2023-06-01T09:51:00;22.17;;;16.93;;
3916;SDS011;1973;50.518;7.318;2023-06-01T09:53:39;23.07;;;18.07;;
3916;SDS011;1973;50.518;7.318;2023-06-01T09:56:06;27.73;;;19.63;;
3916;SDS011;1973;50.518;7.318;2023-06-01T09:58:32;25.57;;;19.60;;
3916;SDS011;1973;50.518;7.318;2023-06-01T10:01:05;19.97;;;16.97;;
3916;SDS011;1973;50.518;7.318;2023-06-01T10:03:35;25.13;;;19.47;;
3916;SDS011;1973;50.518;7.318;2023-06-01T10:06:09;25.40;;;18.90;;
3916;SDS011;1973;50.518;7.318;2023-06-01T10:08:37;27.00;;;18.27;;
3916;SDS011;1973;50.518;7.318;2023-06-01T10:11:04;25.87;;;19.33;;
3916;SDS011;1973;50.518;7.318;2023-06-01T10:13:31;21.07;;;17.40;;
3916;SDS011;1973;50.518;7.318;2023-06-01T10:15:57;24.20;;;18.93;;
3916;SDS011;1973;50.518;7.318;2023-06-01T10:18:24;26.23;;;19.33;;
3916;SDS011;1973;50.518;7.318;2023-06-01T10:20:51;23.57;;;18.30;;
3916;SDS011;1973;50.518;7.318;2023-06-01T10:23:18;23.70;;;20.40;;
3916;SDS011;1973;50.518;7.318;2023-06-01T10:25:56;27.07;;;19.63;;
3916;SDS011;1973;50.518;7.318;2023-06-01T10:28:25;21.90;;;19.70;;
3916;SDS011;1973;50.518;7.318;2023-06-01T10:34:00;23.17;;;19.67;;
3916;SDS011;1973;50.518;7.318;2023-06-01T10:39:28;31.60;;;23.17;;
3916;SDS011;1973;50.518;7.318;2023-06-01T10:42:44;27.93;;;22.10;;
3916;SDS011;1973;50.518;7.318;2023-06-01T10:44:45;28.60;;;21.10;;
3916;SDS011;1973;50.518;7.318;2023-06-01T10:50:25;23.53;;;20.73;;
3916;SDS011;1973;50.518;7.318;2023-06-01T10:52:30;27.70;;;20.67;;
3916;SDS011;1973;50.518;7.318;2023-06-01T10:57:31;23.63;;;21.10;;
3916;SDS011;1973;50.518;7.318;2023-06-01T11:00:11;22.90;;;20.23;;
3916;SDS011;1973;50.518;7.318;2023-06-01T11:07:59;28.93;;;22.03;;
3916;SDS011;1973;50.518;7.318;2023-06-01T11:21:22;23.80;;;18.93;;
3916;SDS011;1973;50.518;7.318;2023-06-01T11:23:53;20.47;;;17.33;;
3916;SDS011;1973;50.518;7.318;2023-06-01T11:26:22;21.07;;;16.73;;
3916;SDS011;1973;50.518;7.318;2023-06-01T11:28:51;21.00;;;19.00;;
3916;SDS011;1973;50.518;7.318;2023-06-01T11:31:30;19.13;;;17.30;;
3916;SDS011;1973;50.518;7.318;2023-06-01T11:34:01;18.97;;;15.63;;
3916;SDS011;1973;50.518;7.318;2023-06-01T11:36:35;20.53;;;17.83;;
3916;SDS011;1973;50.518;7.318;2023-06-01T11:39:15;19.83;;;16.27;;
3916;SDS011;1973;50.518;7.318;2023-06-01T11:41:49;21.23;;;17.23;;
3916;SDS011;1973;50.518;7.318;2023-06-01T11:44:16;16.57;;;14.90;;
3916;SDS011;1973;50.518;7.318;2023-06-01T11:46:53;17.27;;;15.30;;
3916;SDS011;1973;50.518;7.318;2023-06-01T11:49:22;15.57;;;14.07;;
3916;SDS011;1973;50.518;7.318;2023-06-01T11:51:49;14.90;;;13.40;;
3916;SDS011;1973;50.518;7.318;2023-06-01T11:54:23;15.53;;;13.03;;
3916;SDS011;1973;50.518;7.318;2023-06-01T11:56:55;15.50;;;13.13;;
3916;SDS011;1973;50.518;7.318;2023-06-01T11:59:24;17.97;;;13.40;;
3916;SDS011;1973;50.518;7.318;2023-06-01T12:01:51;13.93;;;12.30;;
3916;SDS011;1973;50.518;7.318;2023-06-01T12:04:20;13.73;;;12.10;;
3916;SDS011;1973;50.518;7.318;2023-06-01T12:06:49;12.07;;;10.60;;
3916;SDS011;1973;50.518;7.318;2023-06-01T12:09:17;13.30;;;12.00;;
3916;SDS011;1973;50.518;7.318;2023-06-01T12:11:46;13.40;;;10.03;;
3916;SDS011;1973;50.518;7.318;2023-06-01T12:14:14;9.97;;;9.03;;
3916;SDS011;1973;50.518;7.318;2023-06-01T12:16:54;12.17;;;9.03;;
3916;SDS011;1973;50.518;7.318;2023-06-01T12:19:31;16.50;;;12.13;;
3916;SDS011;1973;50.518;7.318;2023-06-01T12:21:58;14.20;;;11.07;;
3916;SDS011;1973;50.518;7.318;2023-06-01T12:24:26;11.67;;;10.23;;
3916;SDS011;1973;50.518;7.318;2023-06-01T12:26:56;11.27;;;10.07;;
3916;SDS011;1973;50.518;7.318;2023-06-01T12:29:34;18.57;;;9.70;;
3916;SDS011;1973;50.518;7.318;2023-06-01T12:32:03;12.57;;;10.50;;
3916;SDS011;1973;50.518;7.318;2023-06-01T12:34:29;12.50;;;11.20;;
3916;SDS011;1973;50.518;7.318;2023-06-01T12:36:56;16.43;;;13.00;;
3916;SDS011;1973;50.518;7.318;2023-06-01T12:39:32;18.33;;;11.10;;
3916;SDS011;1973;50.518;7.318;2023-06-01T12:42:03;13.17;;;11.27;;
3916;SDS011;1973;50.518;7.318;2023-06-01T12:44:31;13.30;;;10.97;;
3916;SDS011;1973;50.518;7.318;2023-06-01T12:47:03;13.73;;;10.97;;
3916;SDS011;1973;50.518;7.318;2023-06-01T12:49:30;12.93;;;11.63;;
3916;SDS011;1973;50.518;7.318;2023-06-01T12:51:56;13.27;;;11.60;;
3916;SDS011;1973;50.518;7.318;2023-06-01T12:54:23;13.30;;;10.40;;
3916;SDS011;1973;50.518;7.318;2023-06-01T12:56:50;12.23;;;10.93;;
3916;SDS011;1973;50.518;7.318;2023-06-01T12:59:17;12.73;;;11.50;;
3916;SDS011;1973;50.518;7.318;2023-06-01T13:01:44;14.30;;;10.57;;
3916;SDS011;1973;50.518;7.318;2023-06-01T13:04:10;12.83;;;10.23;;
3916;SDS011;1973;50.518;7.318;2023-06-01T13:06:37;12.70;;;10.67;;
3916;SDS011;1973;50.518;7.318;2023-06-01T13:09:05;14.60;;;10.80;;
3916;SDS011;1973;50.518;7.318;2023-06-01T13:11:32;11.30;;;9.57;;
3916;SDS011;1973;50.518;7.318;2023-06-01T13:13:59;12.33;;;10.30;;
3916;SDS011;1973;50.518;7.318;2023-06-01T13:16:26;12.70;;;11.40;;
3916;SDS011;1973;50.518;7.318;2023-06-01T13:18:53;12.07;;;9.33;;
3916;SDS011;1973;50.518;7.318;2023-06-01T13:21:20;13.10;;;9.27;;
3916;SDS011;1973;50.518;7.318;2023-06-01T13:23:47;12.30;;;9.40;;
3916;SDS011;1973;50.518;7.318;2023-06-01T13:26:14;11.57;;;9.50;;
3916;SDS011;1973;50.518;7.318;2023-06-01T13:28:41;11.40;;;9.17;;
3916;SDS011;1973;50.518;7.318;2023-06-01T13:31:07;14.40;;;8.70;;
3916;SDS011;1973;50.518;7.318;2023-06-01T13:33:34;15.10;;;9.40;;
3916;SDS011;1973;50.518;7.318;2023-06-01T13:36:01;14.50;;;9.50;;
3916;SDS011;1973;50.518;7.318;2023-06-01T13:38:28;12.17;;;10.10;;
3916;SDS011;1973;50.518;7.318;2023-06-01T13:40:54;9.50;;;8.40;;
3916;SDS011;1973;50.518;7.318;2023-06-01T13:43:21;12.73;;;10.03;;
3916;SDS011;1973;50.518;7.318;2023-06-01T13:45:48;13.10;;;10.00;;
3916;SDS011;1973;50.518;7.318;2023-06-01T13:48:14;13.97;;;10.30;;
3916;SDS011;1973;50.518;7.318;2023-06-01T13:50:45;12.17;;;10.27;;
3916;SDS011;1973;50.518;7.318;2023-06-01T13:53:12;13.47;;;11.07;;
3916;SDS011;1973;50.518;7.318;2023-06-01T13:55:38;18.20;;;12.40;;
3916;SDS011;1973;50.518;7.318;2023-06-01T13:58:05;14.13;;;12.73;;
3916;SDS011;1973;50.518;7.318;2023-06-01T14:00:32;13.13;;;11.73;;
3916;SDS011;1973;50.518;7.318;2023-06-01T14:02:59;15.90;;;11.87;;
3916;SDS011;1973;50.518;7.318;2023-06-01T14:05:25;12.13;;;10.77;;
3916;SDS011;1973;50.518;7.318;2023-06-01T14:08:05;14.70;;;12.77;;
3916;SDS011;1973;50.518;7.318;2023-06-01T14:10:31;14.60;;;13.07;;
3916;SDS011;1973;50.518;7.318;2023-06-01T14:13:00;14.37;;;12.47;;
3916;SDS011;1973;50.518;7.318;2023-06-01T14:15:27;15.83;;;13.53;;
3916;SDS011;1973;50.518;7.318;2023-06-01T14:17:54;14.40;;;12.40;;
3916;SDS011;1973;50.518;7.318;2023-06-01T14:20:22;14.83;;;11.83;;
3916;SDS011;1973;50.518;7.318;2023-06-01T14:22:48;13.27;;;10.80;;
3916;SDS011;1973;50.518;7.318;2023-06-01T14:25:15;18.87;;;11.80;;
3916;SDS011;1973;50.518;7.318;2023-06-01T14:27:41;15.83;;;10.80;;
3916;SDS011;1973;50.518;7.318;2023-06-01T14:30:08;12.80;;;10.37;;
3916;SDS011;1973;50.518;7.318;2023-06-01T14:32:35;14.87;;;9.67;;
3916;SDS011;1973;50.518;7.318;2023-06-01T14:35:02;11.93;;;9.43;;
3916;SDS011;1973;50.518;7.318;2023-06-01T14:37:28;10.40;;;8.73;;
3916;SDS011;1973;50.518;7.318;2023-06-01T14:40:06;10.40;;;9.30;;
3916;SDS011;1973;50.518;7.318;2023-06-01T14:42:34;10.67;;;9.17;;
3916;SDS011;1973;50.518;7.318;2023-06-01T14:45:00;10.67;;;8.83;;
3916;SDS011;1973;50.518;7.318;2023-06-01T14:47:31;10.60;;;9.50;;
3916;SDS011;1973;50.518;7.318;2023-06-01T14:49:58;15.00;;;11.63;;
3916;SDS011;1973;50.518;7.318;2023-06-01T14:52:25;13.83;;;10.00;;
3916;SDS011;1973;50.518;7.318;2023-06-01T14:54:51;17.33;;;9.50;;
3916;SDS011;1973;50.518;7.318;2023-06-01T14:57:17;10.57;;;9.60;;
3916;SDS011;1973;50.518;7.318;2023-06-01T14:59:44;14.57;;;10.23;;
3916;SDS011;1973;50.518;7.318;2023-06-01T15:02:28;12.30;;;10.93;;
3916;SDS011;1973;50.518;7.318;2023-06-01T15:04:55;17.07;;;10.77;;
3916;SDS011;1973;50.518;7.318;2023-06-01T15:07:22;17.47;;;13.23;;
3916;SDS011;1973;50.518;7.318;2023-06-01T15:09:48;14.30;;;12.00;;
3916;SDS011;1973;50.518;7.318;2023-06-01T15:12:15;13.97;;;12.37;;
3916;SDS011;1973;50.518;7.318;2023-06-01T15:14:41;14.43;;;11.07;;
3916;SDS011;1973;50.518;7.318;2023-06-01T15:17:09;14.30;;;12.00;;
3916;SDS011;1973;50.518;7.318;2023-06-01T15:19:36;14.87;;;12.23;;
3916;SDS011;1973;50.518;7.318;2023-06-01T15:22:02;12.73;;;11.43;;
3916;SDS011;1973;50.518;7.318;2023-06-01T15:24:29;13.57;;;10.43;;
3916;SDS011;1973;50.518;7.318;2023-06-01T15:26:56;16.57;;;12.50;;
3916;SDS011;1973;50.518;7.318;2023-06-01T15:29:22;14.20;;;12.23;;
3916;SDS011;1973;50.518;7.318;2023-06-01T15:31:49;16.70;;;12.53;;
3916;SDS011;1973;50.518;7.318;2023-06-01T15:34:15;15.63;;;12.70;;
3916;SDS011;1973;50.518;7.318;2023-06-01T15:36:42;15.60;;;12.47;;
3916;SDS011;1973;50.518;7.318;2023-06-01T15:39:08;15.40;;;13.10;;
3916;SDS011;1973;50.518;7.318;2023-06-01T15:41:36;20.10;;;13.40;;
3916;SDS011;1973;50.518;7.318;2023-06-01T15:44:03;11.93;;;10.50;;
3916;SDS011;1973;50.518;7.318;2023-06-01T15:46:29;15.87;;;11.80;;
3916;SDS011;1973;50.518;7.318;2023-06-01T15:48:56;14.97;;;12.80;;
3916;SDS011;1973;50.518;7.318;2023-06-01T15:51:22;12.67;;;11.37;;
3916;SDS011;1973;50.518;7.318;2023-06-01T15:53:50;14.87;;;11.47;;